sensor_id;sensor_type;location;lat;lon;timestamp;pressure;altitude;pressure_sealevel;temperature;humidity
7730;BME280;3908;52.310;7.230;2023-02-05T00:00:14;51395.44;;;-145.83;100.00
7730;BME280;3908;52.310;7.230;2023-02-05T00:03:01;51379.81;;;-145.83;100.00
7730;BME280;3908;52.310;7.230;2023-02-05T00:05:48;51375.88;;;-145.83;100.00
7730;BME280;3908;52.310;7.230;2023-02-05T00:08:35;51356.31;;;-145.83;100.00
7730;BME280;3908;52.310;7.230;2023-02-05T00:11:22;51364.16;;;-145.83;100.00
7730;BME280;3908;52.310;7.230;2023-02-05T00:14:11;51368.06;;;-145.83;100.00
7730;BME280;3908;52.310;7.230;2023-02-05T00:16:58;51379.81;;;-145.83;100.00
7730;BME280;3908;52.310;7.230;2023-02-05T00:19:45;51352.41;;;-145.83;100.00
7730;BME280;3908;52.310;7.230;2023-02-05T00:22:33;51368.06;;;-145.83;100.00
7730;BME280;3908;52.310;7.230;2023-02-05T00:25:20;51362.19;;;-145.83;100.00
7730;BME280;3908;52.310;7.230;2023-02-05T00:28:07;51368.06;;;-145.83;100.00
7730;BME280;3908;52.310;7.230;2023-02-05T00:30:55;51415.00;;;-145.83;100.00
7730;BME280;3908;52.310;7.230;2023-02-05T00:33:44;51368.06;;;-145.83;100.00
7730;BME280;3908;52.310;7.230;2023-02-05T00:36:31;51416.97;;;-145.83;100.00
7730;BME280;3908;52.310;7.230;2023-02-05T00:39:18;51391.53;;;-145.83;100.00
7730;BME280;3908;52.310;7.230;2023-02-05T00:42:06;51371.97;;;-145.83;100.00
7730;BME280;3908;52.310;7.230;2023-02-05T00:44:53;51415.00;;;-145.83;100.00
7730;BME280;3908;52.310;7.230;2023-02-05T00:47:41;51366.09;;;-145.83;100.00
7730;BME280;3908;52.310;7.230;2023-02-05T00:50:28;51415.00;;;-145.83;100.00
7730;BME280;3908;52.310;7.230;2023-02-05T00:53:15;51401.31;;;-145.83;100.00
7730;BME280;3908;52.310;7.230;2023-02-05T00:56:03;51405.22;;;-145.83;100.00
7730;BME280;3908;52.310;7.230;2023-02-05T00:58:50;51401.31;;;-145.83;100.00
7730;BME280;3908;52.310;7.230;2023-02-05T01:01:37;51375.88;;;-145.83;100.00
7730;BME280;3908;52.310;7.230;2023-02-05T01:04:26;51350.47;;;-145.83;100.00
7730;BME280;3908;52.310;7.230;2023-02-05T01:07:16;51368.06;;;-145.83;100.00
7730;BME280;3908;52.310;7.230;2023-02-05T01:10:06;51373.94;;;-145.83;100.00
7730;BME280;3908;52.310;7.230;2023-02-05T01:12:53;51375.88;;;-145.83;100.00
7730;BME280;3908;52.310;7.230;2023-02-05T01:15:41;51387.63;;;-145.83;100.00
7730;BME280;3908;52.310;7.230;2023-02-05T01:18:28;51415.00;;;-145.83;100.00
7730;BME280;3908;52.310;7.230;2023-02-05T01:21:16;51383.72;;;-145.83;100.00
7730;BME280;3908;52.310;7.230;2023-02-05T01:24:03;51395.44;;;-145.83;100.00
7730;BME280;3908;52.310;7.230;2023-02-05T01:26:51;51373.94;;;-145.83;100.00
7730;BME280;3908;52.310;7.230;2023-02-05T01:29:40;51381.75;;;-145.83;100.00
7730;BME280;3908;52.310;7.230;2023-02-05T01:32:28;51407.19;;;-145.83;100.00
7730;BME280;3908;52.310;7.230;2023-02-05T01:35:15;51399.38;;;-145.83;100.00
7730;BME280;3908;52.310;7.230;2023-02-05T01:38:03;51373.94;;;-145.83;100.00
7730;BME280;3908;52.310;7.230;2023-02-05T01:40:50;51379.81;;;-145.83;100.00
7730;BME280;3908;52.310;7.230;2023-02-05T01:43:37;51373.94;;;-145.83;100.00
7730;BME280;3908;52.310;7.230;2023-02-05T01:46:25;51413.06;;;-145.83;100.00
7730;BME280;3908;52.310;7.230;2023-02-05T01:49:18;51422.84;;;-145.83;100.00
7730;BME280;3908;52.310;7.230;2023-02-05T01:52:10;51395.44;;;-145.83;100.00
7730;BME280;3908;52.310;7.230;2023-02-05T01:54:59;51409.16;;;-145.83;100.00
7730;BME280;3908;52.310;7.230;2023-02-05T01:57:49;51326.97;;;-145.83;100.00
7730;BME280;3908;52.310;7.230;2023-02-05T02:00:37;51391.53;;;-145.83;100.00
7730;BME280;3908;52.310;7.230;2023-02-05T02:03:24;51373.94;;;-145.83;100.00
7730;BME280;3908;52.310;7.230;2023-02-05T02:06:12;51356.31;;;-145.83;100.00
7730;BME280;3908;52.310;7.230;2023-02-05T02:09:00;51364.16;;;-145.83;100.00
7730;BME280;3908;52.310;7.230;2023-02-05T02:11:49;51403.28;;;-145.83;100.00
7730;BME280;3908;52.310;7.230;2023-02-05T02:14:37;51375.88;;;-145.83;100.00
7730;BME280;3908;52.310;7.230;2023-02-05T02:17:26;51403.28;;;-145.83;100.00
7730;BME280;3908;52.310;7.230;2023-02-05T02:20:15;51428.72;;;-145.83;100.00
7730;BME280;3908;52.310;7.230;2023-02-05T02:23:14;51411.09;;;-145.83;100.00
7730;BME280;3908;52.310;7.230;2023-02-05T02:26:24;51397.41;;;-145.83;100.00
7730;BME280;3908;52.310;7.230;2023-02-05T02:29:18;51413.06;;;-145.83;100.00
7730;BME280;3908;52.310;7.230;2023-02-05T02:32:15;51405.22;;;-145.83;100.00
7730;BME280;3908;52.310;7.230;2023-02-05T02:35:06;51444.34;;;-145.83;100.00
7730;BME280;3908;52.310;7.230;2023-02-05T02:37:59;51403.28;;;-145.83;100.00
7730;BME280;3908;52.310;7.230;2023-02-05T02:40:52;51375.88;;;-145.83;100.00
7730;BME280;3908;52.310;7.230;2023-02-05T02:43:45;51422.84;;;-145.83;100.00
7730;BME280;3908;52.310;7.230;2023-02-05T02:46:39;51375.88;;;-145.83;100.00
7730;BME280;3908;52.310;7.230;2023-02-05T02:49:31;51362.19;;;-145.83;100.00
7730;BME280;3908;52.310;7.230;2023-02-05T02:52:21;51405.22;;;-145.83;100.00
7730;BME280;3908;52.310;7.230;2023-02-05T02:55:12;51409.16;;;-145.83;100.00
7730;BME280;3908;52.310;7.230;2023-02-05T02:58:01;51358.28;;;-145.83;100.00
7730;BME280;3908;52.310;7.230;2023-02-05T03:00:50;51393.50;;;-145.83;100.00
7730;BME280;3908;52.310;7.230;2023-02-05T03:03:45;51411.09;;;-145.83;100.00
7730;BME280;3908;52.310;7.230;2023-02-05T03:06:37;51391.53;;;-145.83;100.00
7730;BME280;3908;52.310;7.230;2023-02-05T03:09:29;51366.09;;;-145.83;100.00
7730;BME280;3908;52.310;7.230;2023-02-05T03:12:23;51416.97;;;-145.83;100.00
7730;BME280;3908;52.310;7.230;2023-02-05T03:15:10;51373.94;;;-145.83;100.00
7730;BME280;3908;52.310;7.230;2023-02-05T03:17:57;51377.84;;;-145.83;100.00
7730;BME280;3908;52.310;7.230;2023-02-05T03:20:49;51391.53;;;-145.83;100.00
7730;BME280;3908;52.310;7.230;2023-02-05T03:23:37;51403.28;;;-145.83;100.00
7730;BME280;3908;52.310;7.230;2023-02-05T03:26:28;51373.94;;;-145.83;100.00
7730;BME280;3908;52.310;7.230;2023-02-05T03:29:18;51444.34;;;-145.83;100.00
7730;BME280;3908;52.310;7.230;2023-02-05T03:32:16;51385.66;;;-145.83;100.00
7730;BME280;3908;52.310;7.230;2023-02-05T03:35:15;51383.72;;;-145.83;100.00
7730;BME280;3908;52.310;7.230;2023-02-05T03:38:18;51387.63;;;-145.83;100.00
7730;BME280;3908;52.310;7.230;2023-02-05T03:41:17;51366.09;;;-145.83;100.00
7730;BME280;3908;52.310;7.230;2023-02-05T03:44:09;51391.53;;;-145.83;100.00
7730;BME280;3908;52.310;7.230;2023-02-05T03:47:00;51405.22;;;-145.83;100.00
7730;BME280;3908;52.310;7.230;2023-02-05T03:49:54;51362.19;;;-145.83;100.00
7730;BME280;3908;52.310;7.230;2023-02-05T03:52:49;51413.06;;;-145.83;100.00
7730;BME280;3908;52.310;7.230;2023-02-05T03:55:44;51385.66;;;-145.83;100.00
7730;BME280;3908;52.310;7.230;2023-02-05T03:58:35;51448.28;;;-145.83;100.00
7730;BME280;3908;52.310;7.230;2023-02-05T04:01:24;51393.50;;;-145.83;100.00
7730;BME280;3908;52.310;7.230;2023-02-05T04:04:11;51401.31;;;-145.83;100.00
7730;BME280;3908;52.310;7.230;2023-02-05T04:07:00;51391.53;;;-145.83;100.00
7730;BME280;3908;52.310;7.230;2023-02-05T04:09:47;51411.09;;;-145.83;100.00
7730;BME280;3908;52.310;7.230;2023-02-05T04:12:36;51385.66;;;-145.83;100.00
7730;BME280;3908;52.310;7.230;2023-02-05T04:15:23;51409.16;;;-145.83;100.00
7730;BME280;3908;52.310;7.230;2023-02-05T04:18:10;51420.88;;;-145.83;100.00
7730;BME280;3908;52.310;7.230;2023-02-05T04:20:57;51432.63;;;-145.83;100.00
7730;BME280;3908;52.310;7.230;2023-02-05T04:23:45;51407.19;;;-145.83;100.00
7730;BME280;3908;52.310;7.230;2023-02-05T04:26:32;51381.75;;;-145.83;100.00
7730;BME280;3908;52.310;7.230;2023-02-05T04:29:20;51364.16;;;-145.83;100.00
7730;BME280;3908;52.310;7.230;2023-02-05T04:32:07;51399.38;;;-145.83;100.00
7730;BME280;3908;52.310;7.230;2023-02-05T04:34:54;51442.41;;;-145.83;100.00
7730;BME280;3908;52.310;7.230;2023-02-05T04:37:41;51381.75;;;-145.83;100.00
7730;BME280;3908;52.310;7.230;2023-02-05T04:40:28;51397.41;;;-145.83;100.00
7730;BME280;3908;52.310;7.230;2023-02-05T04:43:15;51428.72;;;-145.83;100.00
7730;BME280;3908;52.310;7.230;2023-02-05T04:46:07;51401.31;;;-145.83;100.00
7730;BME280;3908;52.310;7.230;2023-02-05T04:48:54;51403.28;;;-145.83;100.00
7730;BME280;3908;52.310;7.230;2023-02-05T04:51:41;51389.59;;;-145.83;100.00
7730;BME280;3908;52.310;7.230;2023-02-05T04:54:28;51370.03;;;-145.83;100.00
7730;BME280;3908;52.310;7.230;2023-02-05T04:57:16;51411.09;;;-145.83;100.00
7730;BME280;3908;52.310;7.230;2023-02-05T05:00:03;51409.16;;;-145.83;100.00
7730;BME280;3908;52.310;7.230;2023-02-05T05:02:52;51438.50;;;-145.83;100.00
7730;BME280;3908;52.310;7.230;2023-02-05T05:05:39;51387.63;;;-145.83;100.00
7730;BME280;3908;52.310;7.230;2023-02-05T05:08:27;51403.28;;;-145.83;100.00
7730;BME280;3908;52.310;7.230;2023-02-05T05:11:16;51387.63;;;-145.83;100.00
7730;BME280;3908;52.310;7.230;2023-02-05T05:14:04;51444.34;;;-145.83;100.00
7730;BME280;3908;52.310;7.230;2023-02-05T05:16:51;51403.28;;;-145.83;100.00
7730;BME280;3908;52.310;7.230;2023-02-05T05:19:39;51413.06;;;-145.83;100.00
7730;BME280;3908;52.310;7.230;2023-02-05T05:22:26;51391.53;;;-145.83;100.00
7730;BME280;3908;52.310;7.230;2023-02-05T05:25:13;51416.97;;;-145.83;100.00
7730;BME280;3908;52.310;7.230;2023-02-05T05:28:00;51379.81;;;-145.83;100.00
7730;BME280;3908;52.310;7.230;2023-02-05T05:30:47;51434.56;;;-145.83;100.00
7730;BME280;3908;52.310;7.230;2023-02-05T05:33:35;51393.50;;;-145.83;100.00
7730;BME280;3908;52.310;7.230;2023-02-05T05:36:23;51373.94;;;-145.83;100.00
7730;BME280;3908;52.310;7.230;2023-02-05T05:39:10;51375.88;;;-145.83;100.00
7730;BME280;3908;52.310;7.230;2023-02-05T05:42:15;51387.63;;;-145.83;100.00
7730;BME280;3908;52.310;7.230;2023-02-05T05:45:19;51415.00;;;-145.83;100.00
7730;BME280;3908;52.310;7.230;2023-02-05T05:48:06;51440.44;;;-145.83;100.00
7730;BME280;3908;52.310;7.230;2023-02-05T05:50:54;51368.06;;;-145.83;100.00
7730;BME280;3908;52.310;7.230;2023-02-05T05:53:42;51420.88;;;-145.83;100.00
7730;BME280;3908;52.310;7.230;2023-02-05T05:56:29;51432.63;;;-145.83;100.00
7730;BME280;3908;52.310;7.230;2023-02-05T05:59:16;51430.66;;;-145.83;100.00
7730;BME280;3908;52.310;7.230;2023-02-05T06:02:04;51383.72;;;-145.83;100.00
7730;BME280;3908;52.310;7.230;2023-02-05T06:04:51;51430.66;;;-145.83;100.00
7730;BME280;3908;52.310;7.230;2023-02-05T06:07:38;51440.44;;;-145.83;100.00
7730;BME280;3908;52.310;7.230;2023-02-05T06:10:29;51415.00;;;-145.83;100.00
7730;BME280;3908;52.310;7.230;2023-02-05T06:13:17;51411.09;;;-145.83;100.00
7730;BME280;3908;52.310;7.230;2023-02-05T06:16:05;51446.31;;;-145.83;100.00
7730;BME280;3908;52.310;7.230;2023-02-05T06:18:52;51397.41;;;-145.83;100.00
7730;BME280;3908;52.310;7.230;2023-02-05T06:21:40;51461.97;;;-145.83;100.00
7730;BME280;3908;52.310;7.230;2023-02-05T06:24:27;51403.28;;;-145.83;100.00
7730;BME280;3908;52.310;7.230;2023-02-05T06:27:16;51403.28;;;-145.83;100.00
7730;BME280;3908;52.310;7.230;2023-02-05T06:30:03;51401.31;;;-145.83;100.00
7730;BME280;3908;52.310;7.230;2023-02-05T06:32:50;51383.72;;;-145.83;100.00
7730;BME280;3908;52.310;7.230;2023-02-05T06:35:37;51387.63;;;-145.83;100.00
7730;BME280;3908;52.310;7.230;2023-02-05T06:38:24;51395.44;;;-145.83;100.00
7730;BME280;3908;52.310;7.230;2023-02-05T06:41:12;51434.56;;;-145.83;100.00
7730;BME280;3908;52.310;7.230;2023-02-05T06:44:00;51444.34;;;-145.83;100.00
7730;BME280;3908;52.310;7.230;2023-02-05T06:46:48;51416.97;;;-145.83;100.00
7730;BME280;3908;52.310;7.230;2023-02-05T06:49:35;51403.28;;;-145.83;100.00
7730;BME280;3908;52.310;7.230;2023-02-05T06:52:22;51422.84;;;-145.83;100.00
7730;BME280;3908;52.310;7.230;2023-02-05T06:55:09;51438.50;;;-145.83;100.00
7730;BME280;3908;52.310;7.230;2023-02-05T06:57:56;51426.75;;;-145.83;100.00
7730;BME280;3908;52.310;7.230;2023-02-05T07:00:45;51448.28;;;-145.83;100.00
7730;BME280;3908;52.310;7.230;2023-02-05T07:03:32;51420.88;;;-145.83;100.00
7730;BME280;3908;52.310;7.230;2023-02-05T07:06:19;51434.56;;;-145.83;100.00
7730;BME280;3908;52.310;7.230;2023-02-05T07:09:06;51450.22;;;-145.83;100.00
7730;BME280;3908;52.310;7.230;2023-02-05T07:11:53;51403.28;;;-145.83;100.00
7730;BME280;3908;52.310;7.230;2023-02-05T07:14:40;51452.19;;;-145.83;100.00
7730;BME280;3908;52.310;7.230;2023-02-05T07:17:29;51409.16;;;-145.83;100.00
7730;BME280;3908;52.310;7.230;2023-02-05T07:20:16;51438.50;;;-145.83;100.00
7730;BME280;3908;52.310;7.230;2023-02-05T07:23:03;51461.97;;;-145.83;100.00
7730;BME280;3908;52.310;7.230;2023-02-05T07:25:51;51424.78;;;-145.83;100.00
7730;BME280;3908;52.310;7.230;2023-02-05T07:28:38;51434.56;;;-145.83;100.00
7730;BME280;3908;52.310;7.230;2023-02-05T07:31:25;51438.50;;;-145.83;100.00
7730;BME280;3908;52.310;7.230;2023-02-05T07:34:14;51434.56;;;-145.83;100.00
7730;BME280;3908;52.310;7.230;2023-02-05T07:37:01;51434.56;;;-145.83;100.00
7730;BME280;3908;52.310;7.230;2023-02-05T07:39:48;51475.66;;;-145.83;100.00
7730;BME280;3908;52.310;7.230;2023-02-05T07:42:35;51461.97;;;-145.83;100.00
7730;BME280;3908;52.310;7.230;2023-02-05T07:45:23;51461.97;;;-145.83;100.00
7730;BME280;3908;52.310;7.230;2023-02-05T07:48:10;51438.50;;;-145.83;100.00
7730;BME280;3908;52.310;7.230;2023-02-05T07:50:59;51444.34;;;-145.83;100.00
7730;BME280;3908;52.310;7.230;2023-02-05T07:53:46;51442.41;;;-145.83;100.00
7730;BME280;3908;52.310;7.230;2023-02-05T07:56:33;51407.19;;;-145.83;100.00
7730;BME280;3908;52.310;7.230;2023-02-05T07:59:20;51409.16;;;-145.83;100.00
7730;BME280;3908;52.310;7.230;2023-02-05T08:02:08;51397.41;;;-145.83;100.00
7730;BME280;3908;52.310;7.230;2023-02-05T08:04:55;51463.91;;;-145.83;100.00
7730;BME280;3908;52.310;7.230;2023-02-05T08:07:43;51415.00;;;-145.83;100.00
7730;BME280;3908;52.310;7.230;2023-02-05T08:10:30;51393.50;;;-145.83;100.00
7730;BME280;3908;52.310;7.230;2023-02-05T08:13:17;51434.56;;;-145.83;100.00
7730;BME280;3908;52.310;7.230;2023-02-05T08:16:05;51405.22;;;-145.83;100.00
7730;BME280;3908;52.310;7.230;2023-02-05T08:18:52;51389.59;;;-145.83;100.00
7730;BME280;3908;52.310;7.230;2023-02-05T08:21:39;51452.19;;;-145.83;100.00
7730;BME280;3908;52.310;7.230;2023-02-05T08:24:28;51401.31;;;-145.83;100.00
7730;BME280;3908;52.310;7.230;2023-02-05T08:27:16;51461.97;;;-145.83;100.00
7730;BME280;3908;52.310;7.230;2023-02-05T08:30:04;51434.56;;;-145.83;100.00
7730;BME280;3908;52.310;7.230;2023-02-05T08:32:51;51428.72;;;-145.83;100.00
7730;BME280;3908;52.310;7.230;2023-02-05T08:35:38;51424.78;;;-145.83;100.00
7730;BME280;3908;52.310;7.230;2023-02-05T08:38:25;51440.44;;;-145.83;100.00
7730;BME280;3908;52.310;7.230;2023-02-05T08:41:13;51444.34;;;-145.83;100.00
7730;BME280;3908;52.310;7.230;2023-02-05T08:44:00;51452.19;;;-145.83;100.00
7730;BME280;3908;52.310;7.230;2023-02-05T08:46:48;51438.50;;;-145.83;100.00
7730;BME280;3908;52.310;7.230;2023-02-05T08:49:35;51432.63;;;-145.83;100.00
7730;BME280;3908;52.310;7.230;2023-02-05T08:52:22;51395.44;;;-145.83;100.00
7730;BME280;3908;52.310;7.230;2023-02-05T08:55:09;51432.63;;;-145.83;100.00
7730;BME280;3908;52.310;7.230;2023-02-05T08:57:57;51426.75;;;-145.83;100.00
7730;BME280;3908;52.310;7.230;2023-02-05T09:00:44;51442.41;;;-145.83;100.00
7730;BME280;3908;52.310;7.230;2023-02-05T09:03:32;51473.69;;;-145.83;100.00
7730;BME280;3908;52.310;7.230;2023-02-05T09:06:19;51440.44;;;-145.83;100.00
7730;BME280;3908;52.310;7.230;2023-02-05T09:09:06;51452.19;;;-145.83;100.00
7730;BME280;3908;52.310;7.230;2023-02-05T09:11:53;51461.97;;;-145.83;100.00
7730;BME280;3908;52.310;7.230;2023-02-05T09:14:42;51432.63;;;-145.83;100.00
7730;BME280;3908;52.310;7.230;2023-02-05T09:17:30;51418.94;;;-145.83;100.00
7730;BME280;3908;52.310;7.230;2023-02-05T09:20:19;51446.31;;;-145.83;100.00
7730;BME280;3908;52.310;7.230;2023-02-05T09:23:06;51428.72;;;-145.83;100.00
7730;BME280;3908;52.310;7.230;2023-02-05T09:25:53;51426.75;;;-145.83;100.00
7730;BME280;3908;52.310;7.230;2023-02-05T09:28:40;51458.06;;;-145.83;100.00
7730;BME280;3908;52.310;7.230;2023-02-05T09:31:28;51456.09;;;-145.83;100.00
7730;BME280;3908;52.310;7.230;2023-02-05T09:34:15;51364.16;;;-145.83;100.00
7730;BME280;3908;52.310;7.230;2023-02-05T09:37:02;51432.63;;;-145.83;100.00
7730;BME280;3908;52.310;7.230;2023-02-05T09:39:49;51411.09;;;-145.83;100.00
7730;BME280;3908;52.310;7.230;2023-02-05T09:42:42;51432.63;;;-145.83;100.00
7730;BME280;3908;52.310;7.230;2023-02-05T09:45:35;51436.53;;;-145.83;100.00
7730;BME280;3908;52.310;7.230;2023-02-05T09:48:47;51440.44;;;-145.83;100.00
7730;BME280;3908;52.310;7.230;2023-02-05T09:51:40;51430.66;;;-145.83;100.00
7730;BME280;3908;52.310;7.230;2023-02-05T09:54:31;51364.16;;;-145.83;100.00
7730;BME280;3908;52.310;7.230;2023-02-05T09:57:31;51442.41;;;-145.83;100.00
7730;BME280;3908;52.310;7.230;2023-02-05T10:00:23;51416.97;;;-145.83;100.00
7730;BME280;3908;52.310;7.230;2023-02-05T10:03:20;51438.50;;;-145.83;100.00
7730;BME280;3908;52.310;7.230;2023-02-05T10:06:25;51438.50;;;-145.83;100.00
7730;BME280;3908;52.310;7.230;2023-02-05T10:09:27;51440.44;;;-145.83;100.00
7730;BME280;3908;52.310;7.230;2023-02-05T10:12:24;51430.66;;;-145.83;100.00
7730;BME280;3908;52.310;7.230;2023-02-05T10:15:26;51416.97;;;-145.83;100.00
7730;BME280;3908;52.310;7.230;2023-02-05T10:18:25;51381.75;;;-145.83;100.00
7730;BME280;3908;52.310;7.230;2023-02-05T10:21:24;51448.28;;;-145.83;100.00
7730;BME280;3908;52.310;7.230;2023-02-05T10:24:31;51432.63;;;-145.83;100.00
7730;BME280;3908;52.310;7.230;2023-02-05T10:27:25;51391.53;;;-145.83;100.00
7730;BME280;3908;52.310;7.230;2023-02-05T10:30:17;51426.75;;;-145.83;100.00
7730;BME280;3908;52.310;7.230;2023-02-05T10:33:11;51428.72;;;-145.83;100.00
7730;BME280;3908;52.310;7.230;2023-02-05T10:36:04;51422.84;;;-145.83;100.00
7730;BME280;3908;52.310;7.230;2023-02-05T10:38:55;51434.56;;;-145.83;100.00
7730;BME280;3908;52.310;7.230;2023-02-05T10:41:45;51450.22;;;-145.83;100.00
7730;BME280;3908;52.310;7.230;2023-02-05T10:44:39;51458.06;;;-145.83;100.00
7730;BME280;3908;52.310;7.230;2023-02-05T10:47:41;51475.66;;;-145.83;100.00
7730;BME280;3908;52.310;7.230;2023-02-05T10:50:42;51450.22;;;-145.83;100.00
7730;BME280;3908;52.310;7.230;2023-02-05T10:53:32;51446.31;;;-145.83;100.00
7730;BME280;3908;52.310;7.230;2023-02-05T10:56:22;51450.22;;;-145.83;100.00
7730;BME280;3908;52.310;7.230;2023-02-05T10:59:16;51416.97;;;-145.83;100.00
7730;BME280;3908;52.310;7.230;2023-02-05T11:02:07;51448.28;;;-145.83;100.00
7730;BME280;3908;52.310;7.230;2023-02-05T11:05:00;51450.22;;;-145.83;100.00
7730;BME280;3908;52.310;7.230;2023-02-05T11:07:50;51438.50;;;-145.83;100.00
7730;BME280;3908;52.310;7.230;2023-02-05T11:10:37;51422.84;;;-145.83;100.00
7730;BME280;3908;52.310;7.230;2023-02-05T11:13:26;51471.75;;;-145.83;100.00
7730;BME280;3908;52.310;7.230;2023-02-05T11:16:14;51450.22;;;-145.83;100.00
7730;BME280;3908;52.310;7.230;2023-02-05T11:19:02;51416.97;;;-145.83;100.00
7730;BME280;3908;52.310;7.230;2023-02-05T11:21:53;51403.28;;;-145.83;100.00
7730;BME280;3908;52.310;7.230;2023-02-05T11:24:40;51418.94;;;-145.83;100.00
7730;BME280;3908;52.310;7.230;2023-02-05T11:27:30;51411.09;;;-145.83;100.00
7730;BME280;3908;52.310;7.230;2023-02-05T11:30:24;51426.75;;;-145.83;100.00
7730;BME280;3908;52.310;7.230;2023-02-05T11:33:25;51428.72;;;-145.83;100.00
7730;BME280;3908;52.310;7.230;2023-02-05T11:36:16;51430.66;;;-145.83;100.00
7730;BME280;3908;52.310;7.230;2023-02-05T11:39:05;51442.41;;;-145.83;100.00
7730;BME280;3908;52.310;7.230;2023-02-05T11:41:53;51440.44;;;-145.83;100.00
7730;BME280;3908;52.310;7.230;2023-02-05T11:44:48;51395.44;;;-145.83;100.00
7730;BME280;3908;52.310;7.230;2023-02-05T11:47:39;51407.19;;;-145.83;100.00
7730;BME280;3908;52.310;7.230;2023-02-05T11:50:28;51444.34;;;-145.83;100.00
7730;BME280;3908;52.310;7.230;2023-02-05T11:53:17;51403.28;;;-145.83;100.00
7730;BME280;3908;52.310;7.230;2023-02-05T11:56:09;51393.50;;;-145.83;100.00
7730;BME280;3908;52.310;7.230;2023-02-05T11:59:00;51424.78;;;-145.83;100.00
7730;BME280;3908;52.310;7.230;2023-02-05T12:01:49;51452.19;;;-145.83;100.00
7730;BME280;3908;52.310;7.230;2023-02-05T12:04:43;51420.88;;;-145.83;100.00
7730;BME280;3908;52.310;7.230;2023-02-05T12:07:35;51426.75;;;-145.83;100.00
7730;BME280;3908;52.310;7.230;2023-02-05T12:10:27;51458.06;;;-145.83;100.00
7730;BME280;3908;52.310;7.230;2023-02-05T12:13:22;51438.50;;;-145.83;100.00
7730;BME280;3908;52.310;7.230;2023-02-05T12:16:17;51405.22;;;-145.83;100.00
7730;BME280;3908;52.310;7.230;2023-02-05T12:19:15;51461.97;;;-145.83;100.00
7730;BME280;3908;52.310;7.230;2023-02-05T12:22:12;51444.34;;;-145.83;100.00
7730;BME280;3908;52.310;7.230;2023-02-05T12:25:10;51448.28;;;-145.83;100.00
7730;BME280;3908;52.310;7.230;2023-02-05T12:28:16;51418.94;;;-145.83;100.00
7730;BME280;3908;52.310;7.230;2023-02-05T12:31:16;51436.53;;;-145.83;100.00
7730;BME280;3908;52.310;7.230;2023-02-05T12:34:15;51458.06;;;-145.83;100.00
7730;BME280;3908;52.310;7.230;2023-02-05T12:37:21;51430.66;;;-145.83;100.00
7730;BME280;3908;52.310;7.230;2023-02-05T12:40:24;51452.19;;;-145.83;100.00
7730;BME280;3908;52.310;7.230;2023-02-05T12:43:27;51467.84;;;-145.83;100.00
7730;BME280;3908;52.310;7.230;2023-02-05T12:46:37;51458.06;;;-145.83;100.00
7730;BME280;3908;52.310;7.230;2023-02-05T12:49:42;51444.34;;;-145.83;100.00
7730;BME280;3908;52.310;7.230;2023-02-05T12:52:48;51442.41;;;-145.83;100.00
7730;BME280;3908;52.310;7.230;2023-02-05T12:55:47;51463.91;;;-145.83;100.00
7730;BME280;3908;52.310;7.230;2023-02-05T12:58:40;51438.50;;;-145.83;100.00
7730;BME280;3908;52.310;7.230;2023-02-05T13:01:34;51469.78;;;-145.83;100.00
7730;BME280;3908;52.310;7.230;2023-02-05T13:04:30;51444.34;;;-145.83;100.00
7730;BME280;3908;52.310;7.230;2023-02-05T13:07:25;51430.66;;;-145.83;100.00
7730;BME280;3908;52.310;7.230;2023-02-05T13:10:19;51446.31;;;-145.83;100.00
7730;BME280;3908;52.310;7.230;2023-02-05T13:13:12;51415.00;;;-145.83;100.00
7730;BME280;3908;52.310;7.230;2023-02-05T13:16:04;51401.31;;;-145.83;100.00
7730;BME280;3908;52.310;7.230;2023-02-05T13:18:57;51444.34;;;-145.83;100.00
7730;BME280;3908;52.310;7.230;2023-02-05T13:21:47;51413.06;;;-145.83;100.00
7730;BME280;3908;52.310;7.230;2023-02-05T13:24:56;51434.56;;;-145.83;100.00
7730;BME280;3908;52.310;7.230;2023-02-05T13:28:16;51432.63;;;-145.83;100.00
7730;BME280;3908;52.310;7.230;2023-02-05T13:31:26;51411.09;;;-145.83;100.00
7730;BME280;3908;52.310;7.230;2023-02-05T13:34:15;51397.41;;;-145.83;100.00
7730;BME280;3908;52.310;7.230;2023-02-05T13:37:23;51405.22;;;-145.83;100.00
7730;BME280;3908;52.310;7.230;2023-02-05T13:40:33;51442.41;;;-145.83;99.19
7730;BME280;3908;52.310;7.230;2023-02-05T13:43:44;51432.63;;;-145.83;98.60
7730;BME280;3908;52.310;7.230;2023-02-05T13:46:52;51442.41;;;-145.83;97.02
7730;BME280;3908;52.310;7.230;2023-02-05T13:50:26;51434.56;;;-145.83;96.27
7730;BME280;3908;52.310;7.230;2023-02-05T13:53:27;51454.13;;;-145.83;96.80
7730;BME280;3908;52.310;7.230;2023-02-05T13:56:34;51467.84;;;-145.83;98.81
7730;BME280;3908;52.310;7.230;2023-02-05T13:59:28;51399.38;;;-145.83;100.00
7730;BME280;3908;52.310;7.230;2023-02-05T14:02:30;51405.22;;;-145.83;100.00
7730;BME280;3908;52.310;7.230;2023-02-05T14:05:26;51479.56;;;-145.83;100.00
7730;BME280;3908;52.310;7.230;2023-02-05T14:08:20;51428.72;;;-145.83;100.00
7730;BME280;3908;52.310;7.230;2023-02-05T14:11:09;51471.75;;;-145.83;100.00
7730;BME280;3908;52.310;7.230;2023-02-05T14:14:24;51418.94;;;-145.83;100.00
7730;BME280;3908;52.310;7.230;2023-02-05T14:20:39;51440.44;;;-145.83;100.00
7730;BME280;3908;52.310;7.230;2023-02-05T14:23:54;51405.22;;;-145.83;100.00
7730;BME280;3908;52.310;7.230;2023-02-05T14:26:46;51399.38;;;-145.83;99.38
7730;BME280;3908;52.310;7.230;2023-02-05T14:29:40;51413.06;;;-145.83;97.61
7730;BME280;3908;52.310;7.230;2023-02-05T14:32:54;51418.94;;;-145.83;97.15
7730;BME280;3908;52.310;7.230;2023-02-05T14:35:42;51458.06;;;-145.83;96.37
7730;BME280;3908;52.310;7.230;2023-02-05T14:38:33;51434.56;;;-145.83;95.54
7730;BME280;3908;52.310;7.230;2023-02-05T14:41:24;51407.19;;;-145.83;94.79
7730;BME280;3908;52.310;7.230;2023-02-05T14:44:17;51422.84;;;-145.83;94.27
7730;BME280;3908;52.310;7.230;2023-02-05T14:47:17;51458.06;;;-145.83;94.49
7730;BME280;3908;52.310;7.230;2023-02-05T14:50:07;51422.84;;;-145.83;96.53
7730;BME280;3908;52.310;7.230;2023-02-05T14:52:57;51456.09;;;-145.83;97.84
7730;BME280;3908;52.310;7.230;2023-02-05T14:55:46;51436.53;;;-145.83;98.31
7730;BME280;3908;52.310;7.230;2023-02-05T14:58:36;51454.13;;;-145.83;98.35